Flight Track Log - Related Links

Times and Time Zones

All times are in EDT time to prevent confusion due to time zone crossing. See the LAN2531 flight status page for this flight to view local times or setup timezone preferences in your user account.

Time Position Orientation Groundspeed Altitude Reporting Facility
EDT Latitude Longitude Course Direction KTS MPH feet Rate Location/Type
Tue 12:17:35 AM 40.5667 -73.7333 146° Southeast 220 253 3,500  Level New York TRACON
Tue 12:19:17 AM 40.4831 -73.6472 142° Southeast 250 288 8,400 2,704 Climbing Washington Center
Tue 12:20:17 AM 40.4078 -73.6247 167° South 258 297 10,800 1,881 Climbing Washington Center
Tue 12:21:15 AM 40.3097 -73.6167 176° South 292 336 12,100 2,067 Climbing Washington Center
Tue 12:22:00 AM 40.1535 -73.3123 146° Southeast  Level FlightAware Approximate
Tue 12:22:16 AM 40.2033 -73.6114 178° South 349 402 14,900  Level Washington Center
Tue 12:23:15 AM 40.0908 -73.6092 179° South 389 448 17,700 2,571 Climbing Washington Center
Tue 12:24:15 AM 39.9814 -73.6664 202° Southwest 415 478 20,000 2,033 Climbing Washington Center
Tue 12:25:16 AM 39.8967 -73.7200 206° Southwest 410 472 21,800 1,512 Climbing Washington Center
Tue 12:26:18 AM 39.7792 -73.7906 205° Southwest 422 486 23,100 1,563 Climbing Washington Center
Tue 12:27:15 AM 39.6656 -73.8608 205° Southwest 440 506 24,900 1,692 Climbing Washington Center
Tue 12:28:15 AM 39.5500 -73.9336 206° Southwest 458 527 26,400 2,016 Climbing Washington Center
Tue 12:29:17 AM 39.4361 -74.0036 205° Southwest 472 543 29,000 2,200 Climbing Washington Center
Tue 12:30:15 AM 39.3311 -74.0997 215° Southwest 462 532 30,800 1,438 Climbing Washington Center
Tue 12:31:18 AM 39.2153 -74.1664 204° Southwest 462 532 31,900 595 Climbing Washington Center
Tue 12:32:16 AM 39.0972 -74.2222 200° South 457 526 32,000 51 Climbing Washington Center
Tue 12:33:16 AM 38.9831 -74.2778 201° Southwest 452 520 32,000  Level Washington Center
Tue 12:34:15 AM 38.8650 -74.3333 200° South 447 514 32,000  Level Washington Center
Tue 12:35:17 AM 38.7528 -74.3858 200° South 447 514 32,000  Level Washington Center
Tue 12:36:18 AM 38.6389 -74.4436 202° Southwest 447 514 32,000  Level Washington Center
Tue 12:37:16 AM 38.5247 -74.5036 202° Southwest 452 520 32,000  Level Washington Center
Tue 12:38:18 AM 38.4106 -74.5583 201° Southwest 452 520 32,000 -50 Level Washington Center
Tue 12:39:15 AM 38.2961 -74.6128 200° South 447 514 31,900  Descending Washington Center
Tue 12:40:15 AM 38.1842 -74.6697 202° Southwest 447 514 32,000 50 Climbing Washington Center
Tue 12:41:16 AM 38.0697 -74.7239 200° South 442 509 32,000  Level Washington Center
Tue 12:42:15 AM 37.9514 -74.7858 202° Southwest 435 501 32,000  Level Washington Center
Tue 12:43:15 AM 37.8369 -74.8425 201° Southwest 435 501 32,000 250 Level Washington Center
Tue 12:44:15 AM 37.7247 -74.8961 201° Southwest 435 501 32,500 496 Climbing Washington Center
Tue 12:45:16 AM 37.6125 -74.9494 201° Southwest 435 501 33,000 496 Climbing Washington Center
Tue 12:46:16 AM 37.4981 -75.0028 200° South 435 501 33,500 504 Climbing Washington Center
Tue 12:47:15 AM 37.3878 -75.0586 202° Southwest 435 501 34,000 252 Climbing Washington Center
Tue 12:48:15 AM 37.2772 -75.1064 199° South 435 501 34,000  Level Washington Center
Tue 12:49:15 AM 37.1669 -75.1619 202° Southwest 430 495 34,000  Level Washington Center
Tue 12:50:15 AM 37.0567 -75.2144 201° Southwest 430 495 34,000 -50 Level Washington Center
Tue 12:51:16 AM 36.9461 -75.2644 200° South 430 495 33,900  Descending Washington Center
Tue 12:52:15 AM 36.8378 -75.3142 200° South 430 495 34,000 50 Climbing Washington Center
Tue 12:53:16 AM 36.7317 -75.3664 202° Southwest 425 489 34,000  Level Washington Center
Tue 12:54:15 AM 36.6231 -75.4133 199° South 425 489 34,000 -50 Level Washington Center
Tue 12:55:16 AM 36.5189 -75.4628 201° Southwest 420 483 33,900  Descending Washington Center
Tue 12:56:16 AM 36.4125 -75.5094 199° South 413 475 34,000 50 Climbing Washington Center
Tue 12:57:15 AM 36.3103 -75.5611 202° Southwest 407 468 34,000 -49 Level Washington Center
Tue 12:58:18 AM 36.2039 -75.6075 199° South 407 468 33,900  Descending Washington Center
Tue 12:59:15 AM 36.1017 -75.6536 200° South 407 468 34,000 51 Climbing Washington Center
Tue 01:00:16 AM 35.9972 -75.7050 202° Southwest 407 468 34,000 -49 Level Washington Center
Tue 01:01:17 AM 35.8931 -75.7536 201° Southwest 407 468 33,900  Descending Washington Center
Tue 01:02:15 AM 35.7864 -75.7994 199° South 407 468 34,000 51 Climbing Washington Center
Tue 01:03:15 AM 35.6822 -75.8478 201° Southwest 407 468 34,000  Level Washington Center
Tue 01:04:18 AM 35.5756 -75.8958 200° South 412 474 34,000  Level Washington Center
Tue 01:05:16 AM 35.4669 -75.9439 200° South 412 474 34,000  Level Washington Center
Tue 01:06:16 AM 35.3625 -75.9919 201° Southwest 412 474 34,000  Level Washington Center
Tue 01:07:16 AM 35.2558 -76.0372 199° South 412 474 34,000  Level Washington Center
Tue 01:08:15 AM 35.1492 -76.0850 200° South 412 474 34,000  Level Washington Center
Tue 01:09:15 AM 35.0511 -76.1350 203° Southwest 412 474 34,000  Level Washington Center
Tue 01:10:16 AM 34.9486 -76.1825 201° Southwest 412 474 34,000  Level Washington Center
Tue 01:11:17 AM 34.8397 -76.2322 201° Southwest 412 474 34,000  Level Washington Center
Tue 01:12:15 AM 34.7289 -76.2769 198° South 412 474 34,000  Level Washington Center
Tue 01:13:15 AM 34.6244 -76.3267 201° Southwest 412 474 34,000  Level Washington Center
Tue 01:14:15 AM 34.5156 -76.3736 200° South 412 474 34,000  Level Washington Center
Tue 01:15:15 AM 34.4047 -76.4203 199° South 412 474 34,000  Level Washington Center
Tue 01:16:17 AM 34.2981 -76.4669 200° South 412 474 34,000  Level Washington Center
Tue 01:17:16 AM 34.1953 -76.5311 207° Southwest 412 474 34,000  Level Washington Center
Tue 01:18:15 AM 34.1111 -76.6181 221° Southwest 407 468 34,000  Level Washington Center
Tue 01:19:15 AM 34.0269 -76.7047 220° Southwest 407 468 34,000  Level Washington Center
Tue 01:20:15 AM 33.9406 -76.7986 222° Southwest 407 468 34,000  Level Washington Center
Tue 01:22:39 AM 33.7544 -77.0328 226° Southwest 405 466 34,000  Level Jacksonville Center
Tue 01:23:39 AM 33.6778 -77.1328 227° Southwest 405 466 34,000  Level Jacksonville Center
Tue 01:24:39 AM 33.6011 -77.2350 228° Southwest 405 466 34,000  Level Jacksonville Center
Tue 01:25:39 AM 33.5181 -77.3425 227° Southwest 405 466 34,000  Level Jacksonville Center
Tue 01:26:39 AM 33.4414 -77.4442 228° Southwest 405 466 34,000  Level Jacksonville Center
Tue 01:27:39 AM 33.3661 -77.5433 228° Southwest 405 466 34,000  Level Jacksonville Center
Tue 01:28:39 AM 33.2911 -77.6447 229° Southwest 405 466 34,000  Level Jacksonville Center
Tue 01:29:39 AM 33.2139 -77.7436 227° Southwest 405 466 34,000  Level Jacksonville Center
Tue 01:30:39 AM 33.1386 -77.8422 228° Southwest 405 466 34,000  Level Jacksonville Center
Tue 01:31:39 AM 33.0611 -77.9433 228° Southwest 405 466 34,000  Level Jacksonville Center
Tue 01:32:39 AM 32.9772 -78.0369 223° Southwest 410 472 34,000  Level Jacksonville Center
Tue 01:33:39 AM 32.8950 -78.1281 223° Southwest 415 478 34,000  Level Jacksonville Center
Tue 01:34:39 AM 32.8089 -78.2214 222° Southwest 410 472 34,000  Level Jacksonville Center
Tue 01:35:39 AM 32.7286 -78.3144 224° Southwest 410 472 34,000  Level Jacksonville Center
Tue 01:36:39 AM 32.6506 -78.4047 224° Southwest 410 472 34,000  Level Jacksonville Center
Tue 01:37:39 AM 32.5811 -78.5069 231° Southwest 405 466 34,000  Level Jacksonville Center
Tue 01:38:39 AM 32.5283 -78.6081 238° Southwest 413 475 34,000  Level Jacksonville Center
Tue 01:39:39 AM 32.4689 -78.7092 235° Southwest 401 461 34,000 -50 Level Jacksonville Center
Tue 01:40:39 AM 32.4033 -78.8106 233° Southwest 396 456 33,900  Descending Jacksonville Center
Tue 01:41:39 AM 32.3028 -78.8619 203° Southwest 380 437 34,000 50 Climbing Jacksonville Center
Tue 01:42:39 AM 32.1978 -78.9033 198° South 388 447 34,000  Level Jacksonville Center
Tue 01:43:39 AM 32.0858 -78.8689 165° South 388 447 34,000  Level Jacksonville Center
Tue 01:44:39 AM 31.9892 -78.7778 141° Southeast 392 451 34,000  Level Jacksonville Center
Tue 01:45:39 AM 31.8919 -78.6842 141° Southeast 421 484 34,000  Level Jacksonville Center
Tue 01:46:39 AM 31.7950 -78.5933 141° Southeast 440 506 34,000 -50 Level Jacksonville Center
Tue 01:47:39 AM 31.6958 -78.5003 141° Southeast 446 513 33,900  Descending Jacksonville Center
Tue 01:48:39 AM 31.5986 -78.4072 141° Southeast 451 519 34,000 33 Climbing Jacksonville Center
Tue 01:50:00 AM 31.4276 -78.4145 185° South  Level FlightAware Approximate
Tue 01:50:39 AM 31.3867 -78.2033 185° South 466 536 34,000  Level Jacksonville Center
Tue 01:51:39 AM 31.2847 -78.1014 139° Southeast 474 545 33,900  Descending Jacksonville Center
Tue 01:52:39 AM 31.1856 -78.0144 143° Southeast 460 529 34,000 50 Climbing Jacksonville Center
Tue 01:53:39 AM 31.0836 -77.9153 140° Southeast 474 545 34,000  Level Jacksonville Center
Tue 01:55:40 AM 30.8628 -77.8025 156° South 445 512 34,000  Level Miami Center
Tue 01:56:39 AM 30.7422 -77.7508 160° South 458 527 34,000 -50 Level Miami Center
Tue 01:57:39 AM 30.6217 -77.7017 161° South 470 541 33,900  Descending Miami Center
Tue 01:58:40 AM 30.4803 -77.6692 169° South 465 535 34,000 49 Climbing Miami Center
Tue 01:59:41 AM 30.3617 -77.6369 167° South 456 525 34,000  Level Miami Center
Tue 02:00:39 AM 30.2472 -77.6169 171° South 467 537 34,000  Level Miami Center
Tue 02:01:39 AM 30.1158 -77.6258 183° South 450 518 34,000 -49 Level Miami Center
Tue 02:02:41 AM 30.0008 -77.6608 195° South 443 510 33,900  Descending Miami Center
Tue 02:03:39 AM 29.8819 -77.6886 191° South 448 516 34,000 25 Climbing Miami Center
Tue 02:05:00 AM 29.7217 -77.7307 193° South  Level FlightAware Approximate
Tue 02:06:41 AM 29.5225 -77.7789 193° South 447 514 34,000  Level Miami Center
Tue 02:07:40 AM 29.4056 -77.8089 193° South 441 507 34,000  Level Miami Center
Tue 02:08:39 AM 29.2844 -77.8411 193° South 449 517 34,000 -50 Level Miami Center
Tue 02:09:40 AM 29.1611 -77.8686 191° South 449 517 33,900  Descending Miami Center
Tue 02:10:39 AM 29.0336 -77.8936 190° South 452 520 34,000  Climbing Miami Center
Tue 02:11:42 AM 28.9144 -77.9256 193° South 456 525 33,900  Descending Miami Center
Tue 02:12:00 AM 28.8908 -77.9470 193° South  Level FlightAware Approximate
Tue 02:12:40 AM 28.7994 -77.9553 193° South 439 505 34,000  Level Miami Center
Tue 02:13:40 AM 28.6761 -77.9825 191° South 439 505 33,900  Descending Miami Center
Tue 02:14:42 AM 28.5589 -78.0144 193° South 450 518 34,000 49 Climbing Miami Center
Tue 02:15:42 AM 28.4356 -78.0439 192° South 453 521 34,000  Level Miami Center
Tue 02:16:40 AM 28.3081 -78.0733 191° South 458 527 34,000  Level Miami Center
Tue 02:17:39 AM 28.1867 -78.1050 193° South 458 527 34,000  Level Miami Center
Tue 02:18:42 AM 28.0589 -78.1342 191° South 453 521 34,000  Level Miami Center
Tue 02:19:39 AM 27.9336 -78.1633 192° South 453 521 34,000  Level Miami Center
Tue 02:20:39 AM 27.8078 -78.1947 192° South 459 528 34,000  Level Miami Center
Tue 02:21:39 AM 27.6781 -78.2261 192° South 466 536 34,000  Level Miami Center
Tue 02:22:39 AM 27.5547 -78.2550 192° South 466 536 34,000  Level Miami Center
Tue 02:23:42 AM 27.4208 -78.2861 192° South 472 543 34,000  Level Miami Center
Tue 02:24:41 AM 27.2847 -78.3194 192° South 467 537 34,000  Level Miami Center
Tue 02:25:39 AM 27.1569 -78.3506 192° South 472 543 34,000  Level Miami Center
Tue 02:26:40 AM 27.0564 -78.3728 191° South 467 537 34,000  Level Miami Center
Tue 02:27:39 AM 26.9119 -78.4081 192° South 472 543 34,000  Level Miami Center
Tue 02:28:39 AM 26.7758 -78.4367 191° South 472 543 34,000  Level Miami Center
Tue 02:29:42 AM 26.6458 -78.4697 193° South 467 537 34,000  Level Miami Center
Tue 02:30:39 AM 26.5244 -78.4958 191° South 467 537 34,000  Level Miami Center
Tue 02:31:40 AM 26.3989 -78.5244 192° South 462 532 34,000  Level Miami Center
Tue 02:32:41 AM 26.2731 -78.5572 193° South 462 532 34,000  Level Miami Center
Tue 02:33:42 AM 26.1494 -78.5881 193° South 457 526 34,000  Level Miami Center
Tue 02:34:39 AM 26.0258 -78.6139 191° South 457 526 34,000 150 Level Miami Center
Tue 02:35:42 AM 25.9003 -78.6397 190° South 457 526 34,300 397 Climbing Miami Center
Tue 02:36:40 AM 25.7767 -78.6494 184° South 457 526 34,800 359 Climbing Miami Center
Tue 02:37:39 AM 25.6472 -78.6614 185° South 457 526 35,000 101 Climbing Miami Center
Tue 02:38:39 AM 25.5217 -78.6711 184° South 464 534 35,000  Level Miami Center
Tue 02:39:40 AM 25.3961 -78.6831 185° South 464 534 35,000  Level Miami Center
Tue 02:40:42 AM 25.2622 -78.6972 185° South 469 540 35,000  Level Miami Center
Tue 02:41:41 AM 25.1303 -78.7089 185° South 469 540 35,000  Level Miami Center
Tue 02:42:41 AM 24.9986 -78.7206 185° South 474 545 35,000  Level Miami Center
Tue 02:43:42 AM 24.8628 -78.7300 184° South 483 556 35,000  Level Miami Center
Tue 02:44:39 AM 24.7392 -78.7442 186° South 474 545 35,000  Level Miami Center
Tue 02:45:40 AM 24.6094 -78.7558 185° South 474 545 35,000  Level Miami Center
Tue 02:46:40 AM 24.4756 -78.7653 184° South 474 545 35,000  Level Miami Center
Tue 02:47:41 AM 24.3500 -78.7772 185° South 475 547 35,000  Level Miami Center
Tue 02:48:42 AM 24.2433 -78.7914 187° South 461 531 35,000  Level Miami Center
Tue 02:49:39 AM 24.1136 -78.8031 185° South 461 531 35,000  Level Miami Center
Tue 02:50:39 AM 23.9839 -78.8103 183° South 461 531 35,000  Level Miami Center
Tue 02:52:00 AM 23.8204 -78.8265 185° South  Level FlightAware Approximate
Tue 02:59:00 AM 22.9728 -78.9099 185° South  Level FlightAware Approximate
Tue 03:00:00 AM 22.8517 -78.9217 185° South  Level FlightAware Approximate
Tue 03:01:00 AM 22.7306 -78.9335 185° South  Level FlightAware Approximate
Tue 03:02:00 AM 22.6095 -78.9453 185° South  Level FlightAware Approximate
Tue 03:03:00 AM 22.4884 -78.9570 185° South  Level FlightAware Approximate
Tue 03:04:00 AM 22.3673 -78.9688 185° South  Level FlightAware Approximate
Tue 03:05:00 AM 22.2462 -78.9805 185° South  Level FlightAware Approximate
Tue 03:06:00 AM 22.1251 -78.9924 185° South  Level FlightAware Approximate
Tue 03:07:00 AM 22.0040 -79.0044 185° South  Level FlightAware Approximate
Tue 03:08:00 AM 21.8829 -79.0164 185° South  Level FlightAware Approximate
Tue 03:09:00 AM 21.7619 -79.0283 185° South  Level FlightAware Approximate
Tue 03:10:00 AM 21.6408 -79.0403 185° South  Level FlightAware Approximate
Tue 03:11:00 AM 21.5197 -79.0522 185° South  Level FlightAware Approximate
Tue 03:12:00 AM 21.3986 -79.0641 185° South  Level FlightAware Approximate
Tue 03:13:00 AM 21.2775 -79.0759 185° South  Level FlightAware Approximate
Tue 03:14:00 AM 21.1565 -79.0878 185° South  Level FlightAware Approximate
Tue 03:15:00 AM 21.0354 -79.0996 185° South  Level FlightAware Approximate
Tue 03:16:00 AM 20.9143 -79.1114 185° South  Level FlightAware Approximate
Tue 03:17:00 AM 20.7932 -79.1232 185° South  Level FlightAware Approximate
Tue 03:18:00 AM 20.6721 -79.1350 185° South  Level FlightAware Approximate
Tue 03:19:00 AM 20.5510 -79.1467 185° South  Level FlightAware Approximate
Tue 03:20:00 AM 20.4299 -79.1585 185° South  Level FlightAware Approximate
Tue 03:21:00 AM 20.3088 -79.1702 185° South  Level FlightAware Approximate
Tue 03:22:00 AM 20.1877 -79.1819 185° South  Level FlightAware Approximate
Tue 03:23:00 AM 20.0667 -79.1936 185° South  Level FlightAware Approximate
Tue 03:24:00 AM 19.9454 -79.2017 182° South  Level FlightAware Approximate
Tue 03:25:00 AM 19.8238 -79.2053 182° South  Level FlightAware Approximate
Tue 03:26:00 AM 19.7023 -79.2090 182° South  Level FlightAware Approximate
Tue 03:27:00 AM 19.5807 -79.2127 182° South  Level FlightAware Approximate
Tue 03:28:00 AM 19.4592 -79.2163 182° South  Level FlightAware Approximate
Tue 03:29:00 AM 19.3377 -79.2200 182° South  Level FlightAware Approximate
Tue 03:30:00 AM 19.2161 -79.2236 182° South  Level FlightAware Approximate
Tue 03:31:00 AM 19.0946 -79.2273 182° South  Level FlightAware Approximate
Tue 03:32:00 AM 18.9730 -79.2309 182° South  Level FlightAware Approximate
Tue 03:33:00 AM 18.8515 -79.2346 182° South  Level FlightAware Approximate
Tue 03:34:00 AM 18.7300 -79.2382 182° South  Level FlightAware Approximate
Tue 03:35:00 AM 18.6084 -79.2418 182° South  Level FlightAware Approximate
Tue 03:36:00 AM 18.4869 -79.2454 182° South  Level FlightAware Approximate
Tue 03:37:00 AM 18.3654 -79.2490 182° South  Level FlightAware Approximate
Tue 03:38:00 AM 18.2439 -79.2527 182° South  Level FlightAware Approximate
Tue 03:39:00 AM 18.1223 -79.2564 182° South  Level FlightAware Approximate
Tue 03:40:00 AM 18.0008 -79.2601 182° South  Level FlightAware Approximate
Tue 03:41:00 AM 17.8792 -79.2638 182° South  Level FlightAware Approximate
Tue 03:42:00 AM 17.7577 -79.2675 182° South  Level FlightAware Approximate
Tue 03:43:00 AM 17.6362 -79.2712 182° South  Level FlightAware Approximate
Tue 03:44:00 AM 17.5146 -79.2749 182° South  Level FlightAware Approximate
Tue 03:45:00 AM 17.3931 -79.2786 182° South  Level FlightAware Approximate
Tue 03:46:00 AM 17.2715 -79.2822 182° South  Level FlightAware Approximate
Tue 03:47:00 AM 17.1500 -79.2859 182° South  Level FlightAware Approximate
Tue 03:48:00 AM 17.0285 -79.2896 182° South  Level FlightAware Approximate
Tue 03:49:00 AM 16.9069 -79.2932 182° South  Level FlightAware Approximate
Tue 03:50:00 AM 16.7854 -79.2969 182° South  Level FlightAware Approximate
Tue 03:51:00 AM 16.6639 -79.3005 182° South  Level FlightAware Approximate
Tue 03:52:00 AM 16.5423 -79.3042 182° South  Level FlightAware Approximate
Tue 03:53:00 AM 16.4208 -79.3078 182° South  Level FlightAware Approximate
Tue 03:54:00 AM 16.2992 -79.3114 182° South  Level FlightAware Approximate
Tue 03:55:00 AM 16.1777 -79.3151 182° South  Level FlightAware Approximate
Tue 03:56:00 AM 16.0562 -79.3187 182° South  Level FlightAware Approximate
Tue 03:57:00 AM 15.9346 -79.3223 182° South  Level FlightAware Approximate
Tue 03:58:00 AM 15.8131 -79.3259 182° South  Level FlightAware Approximate
Tue 03:59:00 AM 15.6915 -79.3295 182° South  Level FlightAware Approximate
Tue 04:00:00 AM 15.5700 -79.3332 182° South  Level FlightAware Approximate
Tue 04:01:00 AM 15.4485 -79.3367 182° South  Level FlightAware Approximate
Tue 04:02:00 AM 15.3269 -79.3403 182° South  Level FlightAware Approximate
Tue 04:03:00 AM 15.2054 -79.3439 182° South  Level FlightAware Approximate
Tue 04:04:00 AM 15.0838 -79.3475 182° South  Level FlightAware Approximate
Tue 04:05:00 AM 14.9624 -79.3511 182° South  Level FlightAware Approximate
Tue 04:06:00 AM 14.8408 -79.3548 182° South  Level FlightAware Approximate
Tue 04:07:00 AM 14.7193 -79.3584 182° South  Level FlightAware Approximate
Tue 04:08:00 AM 14.5978 -79.3620 182° South  Level FlightAware Approximate
Tue 04:09:00 AM 14.4762 -79.3656 182° South  Level FlightAware Approximate
Tue 04:10:00 AM 14.3547 -79.3693 182° South  Level FlightAware Approximate
Tue 04:11:00 AM 14.2331 -79.3729 182° South  Level FlightAware Approximate
Tue 04:12:00 AM 14.1116 -79.3765 182° South  Level FlightAware Approximate
Tue 04:13:00 AM 13.9901 -79.3801 182° South  Level FlightAware Approximate
Tue 04:14:00 AM 13.8685 -79.3837 182° South  Level FlightAware Approximate
Tue 04:15:00 AM 13.7470 -79.3873 182° South  Level FlightAware Approximate
Tue 04:16:00 AM 13.6255 -79.3909 182° South  Level FlightAware Approximate
Tue 04:17:00 AM 13.5039 -79.3945 182° South  Level FlightAware Approximate
Tue 04:18:00 AM 13.3824 -79.3981 182° South  Level FlightAware Approximate
Tue 04:19:00 AM 13.2608 -79.4017 182° South  Level FlightAware Approximate
Tue 04:20:00 AM 13.1393 -79.4053 182° South  Level FlightAware Approximate
Tue 04:21:00 AM 13.0177 -79.4089 182° South  Level FlightAware Approximate
Tue 04:22:00 AM 12.8962 -79.4124 182° South  Level FlightAware Approximate
Tue 04:23:00 AM 12.7747 -79.4160 182° South  Level FlightAware Approximate
Tue 04:24:00 AM 12.6531 -79.4196 182° South  Level FlightAware Approximate
Tue 04:25:00 AM 12.5316 -79.4231 182° South  Level FlightAware Approximate
Tue 04:26:00 AM 12.4101 -79.4267 182° South  Level FlightAware Approximate
Tue 04:27:00 AM 12.2885 -79.4303 182° South  Level FlightAware Approximate
Tue 04:28:00 AM 12.1671 -79.4338 182° South  Level FlightAware Approximate
Tue 04:29:00 AM 12.0455 -79.4374 182° South  Level FlightAware Approximate
Tue 04:30:00 AM 11.9240 -79.4411 182° South  Level FlightAware Approximate
Tue 04:31:00 AM 11.8025 -79.4447 182° South  Level FlightAware Approximate
Tue 04:32:00 AM 11.6810 -79.4483 182° South  Level FlightAware Approximate
Tue 04:33:00 AM 11.5594 -79.4519 182° South  Level FlightAware Approximate
Tue 04:34:00 AM 11.4379 -79.4556 182° South  Level FlightAware Approximate
Tue 04:35:00 AM 11.3164 -79.4592 182° South  Level FlightAware Approximate
Tue 04:36:00 AM 11.1948 -79.4628 182° South  Level FlightAware Approximate
Tue 04:37:00 AM 11.0733 -79.4664 182° South  Level FlightAware Approximate
Tue 04:38:00 AM 10.9518 -79.4700 182° South  Level FlightAware Approximate
Tue 04:39:00 AM 10.8302 -79.4736 182° South  Level FlightAware Approximate
Tue 04:40:00 AM 10.7087 -79.4772 182° South  Level FlightAware Approximate
Tue 04:41:00 AM 10.5872 -79.4808 182° South  Level FlightAware Approximate
Tue 04:42:00 AM 10.4656 -79.4843 182° South  Level FlightAware Approximate
Tue 04:43:00 AM 10.3441 -79.4879 182° South  Level FlightAware Approximate
Tue 04:44:00 AM 10.2226 -79.4915 182° South  Level FlightAware Approximate
Tue 04:45:00 AM 10.1011 -79.4951 182° South  Level FlightAware Approximate
Tue 04:46:00 AM 9.9795 -79.4987 182° South  Level FlightAware Approximate
Tue 04:47:00 AM 9.8580 -79.5022 182° South  Level FlightAware Approximate
Tue 04:48:00 AM 9.7365 -79.5058 182° South  Level FlightAware Approximate
Tue 04:49:00 AM 9.6149 -79.5094 182° South  Level FlightAware Approximate
Tue 04:50:00 AM 9.4934 -79.5129 182° South  Level FlightAware Approximate
Tue 04:51:00 AM 9.3719 -79.5165 182° South  Level FlightAware Approximate
Tue 04:52:00 AM 9.2502 -79.5201 182° South  Level FlightAware Approximate
Tue 04:53:00 AM 9.1287 -79.5237 182° South  Level FlightAware Approximate
Tue 04:54:00 AM 9.0072 -79.5273 182° South  Level FlightAware Approximate
Tue 04:55:00 AM 8.8856 -79.5309 182° South  Level FlightAware Approximate
Tue 04:56:00 AM 8.7641 -79.5345 182° South  Level FlightAware Approximate
Tue 04:57:00 AM 8.6426 -79.5380 182° South  Level FlightAware Approximate
Tue 04:58:00 AM 8.5211 -79.5416 182° South  Level FlightAware Approximate
Tue 04:59:00 AM 8.3995 -79.5452 182° South  Level FlightAware Approximate
Tue 05:00:00 AM 8.2780 -79.5488 182° South  Level FlightAware Approximate
Tue 05:01:00 AM 8.1565 -79.5524 182° South  Level FlightAware Approximate
Tue 05:02:00 AM 8.0349 -79.5559 182° South  Level FlightAware Approximate
Tue 05:03:00 AM 7.9134 -79.5595 182° South  Level FlightAware Approximate
Tue 05:04:00 AM 7.7919 -79.5631 182° South  Level FlightAware Approximate
Tue 05:05:00 AM 7.6704 -79.5666 182° South  Level FlightAware Approximate
Tue 05:06:00 AM 7.5488 -79.5702 182° South  Level FlightAware Approximate
Tue 05:07:00 AM 7.4273 -79.5738 182° South  Level FlightAware Approximate
Tue 05:08:00 AM 7.3058 -79.5773 182° South  Level FlightAware Approximate
Tue 05:09:00 AM 7.1842 -79.5809 182° South  Level FlightAware Approximate
Tue 05:10:00 AM 7.0627 -79.5844 182° South  Level FlightAware Approximate
Tue 05:11:00 AM 6.9412 -79.5880 182° South  Level FlightAware Approximate
Tue 05:12:00 AM 6.8196 -79.5915 182° South  Level FlightAware Approximate
Tue 05:13:00 AM 6.6981 -79.5951 182° South  Level FlightAware Approximate
Tue 05:14:00 AM 6.5766 -79.5986 182° South  Level FlightAware Approximate
Tue 05:15:00 AM 6.4550 -79.6022 182° South  Level FlightAware Approximate
Tue 05:16:00 AM 6.3335 -79.6057 182° South  Level FlightAware Approximate
Tue 05:17:00 AM 6.2120 -79.6093 182° South  Level FlightAware Approximate
Tue 05:18:00 AM 6.0905 -79.6128 182° South  Level FlightAware Approximate
Tue 05:19:00 AM 5.9689 -79.6164 182° South  Level FlightAware Approximate
Tue 05:20:00 AM 5.8474 -79.6199 182° South  Level FlightAware Approximate
Tue 05:21:00 AM 5.7259 -79.6234 182° South  Level FlightAware Approximate
Tue 05:22:00 AM 5.6043 -79.6270 182° South  Level FlightAware Approximate
Tue 05:23:00 AM 5.4828 -79.6305 182° South  Level FlightAware Approximate
Tue 05:24:00 AM 5.3613 -79.6340 182° South  Level FlightAware Approximate
Tue 05:25:00 AM 5.2397 -79.6376 182° South  Level FlightAware Approximate
Tue 05:26:00 AM 5.1182 -79.6411 182° South  Level FlightAware Approximate
Tue 05:27:00 AM 4.9967 -79.6446 182° South  Level FlightAware Approximate
Tue 05:28:00 AM 4.8751 -79.6482 182° South  Level FlightAware Approximate
Tue 05:29:00 AM 4.7536 -79.6517 182° South  Level FlightAware Approximate
Tue 05:30:00 AM 4.6320 -79.6552 182° South  Level FlightAware Approximate
Tue 05:31:00 AM 4.5105 -79.6587 182° South  Level FlightAware Approximate
Tue 05:32:00 AM 4.3889 -79.6623 182° South  Level FlightAware Approximate
Tue 05:33:00 AM 4.2674 -79.6658 182° South  Level FlightAware Approximate
Tue 05:34:00 AM 4.1459 -79.6693 182° South  Level FlightAware Approximate
Tue 05:35:00 AM 4.0243 -79.6728 182° South  Level FlightAware Approximate
Tue 05:36:00 AM 3.9028 -79.6763 182° South  Level FlightAware Approximate
Tue 05:37:00 AM 3.7812 -79.6799 182° South  Level FlightAware Approximate
Tue 05:38:00 AM 3.6597 -79.6834 182° South  Level FlightAware Approximate
Tue 05:39:00 AM 3.5382 -79.6869 182° South  Level FlightAware Approximate
Tue 05:40:00 AM 3.4166 -79.6904 182° South  Level FlightAware Approximate
Tue 05:41:00 AM 3.2951 -79.6939 182° South  Level FlightAware Approximate
Tue 05:42:00 AM 3.1735 -79.6974 182° South  Level FlightAware Approximate
Tue 05:43:00 AM 3.0520 -79.7009 182° South  Level FlightAware Approximate
Tue 05:44:00 AM 2.9305 -79.7045 182° South  Level FlightAware Approximate
Tue 05:45:00 AM 2.8089 -79.7080 182° South  Level FlightAware Approximate
Tue 05:46:00 AM 2.6874 -79.7115 182° South  Level FlightAware Approximate
Tue 05:47:00 AM 2.5659 -79.7150 182° South  Level FlightAware Approximate
Tue 05:48:00 AM 2.4443 -79.7185 182° South  Level FlightAware Approximate
Tue 05:49:00 AM 2.3228 -79.7220 182° South  Level FlightAware Approximate
Tue 05:50:00 AM 2.2012 -79.7255 182° South  Level FlightAware Approximate
Tue 05:51:00 AM 2.0797 -79.7290 182° South  Level FlightAware Approximate
Tue 05:52:00 AM 1.9582 -79.7325 182° South  Level FlightAware Approximate
Tue 05:53:00 AM 1.8366 -79.7360 182° South  Level FlightAware Approximate
Tue 05:54:00 AM 1.7151 -79.7395 182° South  Level FlightAware Approximate
Tue 05:55:00 AM 1.5935 -79.7430 182° South  Level FlightAware Approximate
Tue 05:56:00 AM 1.4720 -79.7466 182° South  Level FlightAware Approximate
Tue 05:57:00 AM 1.3505 -79.7501 182° South  Level FlightAware Approximate
Tue 05:58:00 AM 1.2289 -79.7535 182° South  Level FlightAware Approximate
Tue 05:59:00 AM 1.1074 -79.7570 182° South  Level FlightAware Approximate
Tue 06:00:00 AM 0.9858 -79.7606 182° South  Level FlightAware Approximate
Tue 06:01:00 AM 0.8643 -79.7641 182° South  Level FlightAware Approximate
Tue 06:02:00 AM 0.7427 -79.7675 182° South  Level FlightAware Approximate
Tue 06:03:00 AM 0.6212 -79.7710 182° South  Level FlightAware Approximate
Tue 06:04:00 AM 0.4997 -79.7746 182° South  Level FlightAware Approximate
Tue 06:05:00 AM 0.3781 -79.7781 182° South  Level FlightAware Approximate
Tue 06:06:00 AM 0.2566 -79.7815 182° South  Level FlightAware Approximate
Tue 06:07:00 AM 0.1350 -79.7850 182° South  Level FlightAware Approximate
Tue 06:08:00 AM 0.0135 -79.7886 182° South  Level FlightAware Approximate
Tue 06:09:00 AM -0.1080 -79.7921 182° South  Level FlightAware Approximate
Tue 06:10:00 AM -0.2296 -79.7955 182° South  Level FlightAware Approximate
Tue 06:11:00 AM -0.3511 -79.7991 182° South  Level FlightAware Approximate
Tue 06:12:00 AM -0.4726 -79.8026 182° South  Level FlightAware Approximate
Tue 06:13:00 AM -0.5942 -79.8061 182° South  Level FlightAware Approximate
Tue 06:14:00 AM -0.7157 -79.8096 182° South  Level FlightAware Approximate
Tue 06:15:00 AM -0.8373 -79.8131 182° South  Level FlightAware Approximate
Tue 06:16:00 AM -0.9588 -79.8166 182° South  Level FlightAware Approximate
Tue 06:17:00 AM -1.0804 -79.8201 182° South  Level FlightAware Approximate
Tue 06:18:00 AM -1.2019 -79.8236 182° South  Level FlightAware Approximate
Tue 06:19:00 AM -1.3234 -79.8271 182° South  Level FlightAware Approximate
Tue 06:20:00 AM -1.4450 -79.8306 182° South  Level FlightAware Approximate
Tue 06:21:00 AM -1.5665 -79.8341 182° South  Level FlightAware Approximate
Tue 06:22:00 AM -1.6881 -79.8376 182° South  Level FlightAware Approximate
Tue 06:23:00 AM -1.8096 -79.8411 182° South  Level FlightAware Approximate
Tue 06:24:00 AM -1.9311 -79.8447 182° South  Level FlightAware Approximate
Tue 06:25:00 AM -2.0527 -79.8482 182° South  Level FlightAware Approximate
Tue 06:26:00 AM -2.1724 -79.8362 166° South  Level FlightAware Approximate
Tue 06:27:00 AM -2.2905 -79.8071 166° South  Level FlightAware Approximate
Tue 06:28:00 AM -2.4085 -79.7779 166° South  Level FlightAware Approximate
Tue 06:29:00 AM -2.5265 -79.7487 166° South  Level FlightAware Approximate
Tue 06:30:00 AM -2.6446 -79.7195 166° South  Level FlightAware Approximate
Tue 06:31:00 AM -2.7626 -79.6903 166° South  Level FlightAware Approximate
Tue 06:32:00 AM -2.8807 -79.6611 166° South  Level FlightAware Approximate
Tue 06:33:00 AM -2.9987 -79.6319 166° South  Level FlightAware Approximate
Tue 06:34:00 AM -3.1167 -79.6027 166° South  Level FlightAware Approximate
Tue 06:35:00 AM -3.2348 -79.5735 166° South  Level FlightAware Approximate
Tue 06:36:00 AM -3.3528 -79.5442 166° South  Level FlightAware Approximate
Tue 06:37:00 AM -3.4708 -79.5150 166° South  Level FlightAware Approximate
Tue 06:38:00 AM -3.5888 -79.4858 166° South  Level FlightAware Approximate
Tue 06:39:00 AM -3.7069 -79.4565 166° South  Level FlightAware Approximate
Tue 06:40:00 AM -3.8249 -79.4273 166° South  Level FlightAware Approximate
Tue 06:41:00 AM -3.9429 -79.3980 166° South  Level FlightAware Approximate
Tue 06:42:00 AM -4.0610 -79.3687 166° South  Level FlightAware Approximate
Tue 06:43:00 AM -4.1790 -79.3394 166° South  Level FlightAware Approximate
Tue 06:44:00 AM -4.2970 -79.3102 166° South  Level FlightAware Approximate
Tue 06:45:00 AM -4.4150 -79.2809 166° South  Level FlightAware Approximate
Tue 06:46:00 AM -4.5331 -79.2515 166° South  Level FlightAware Approximate
Tue 06:47:00 AM -4.6511 -79.2222 166° South  Level FlightAware Approximate
Tue 06:48:00 AM -4.7691 -79.1929 166° South  Level FlightAware Approximate
Tue 06:49:00 AM -4.8871 -79.1636 166° South  Level FlightAware Approximate
Tue 06:50:00 AM -5.0051 -79.1342 166° South  Level FlightAware Approximate
Tue 06:51:00 AM -5.1232 -79.1049 166° South  Level FlightAware Approximate
Tue 06:52:00 AM -5.2412 -79.0755 166° South  Level FlightAware Approximate
Tue 06:53:00 AM -5.3592 -79.0461 166° South  Level FlightAware Approximate
Tue 06:54:00 AM -5.4772 -79.0167 166° South  Level FlightAware Approximate
Tue 06:55:00 AM -5.5952 -78.9873 166° South  Level FlightAware Approximate
Tue 06:56:00 AM -5.7132 -78.9579 166° South  Level FlightAware Approximate
Tue 06:57:00 AM -5.8312 -78.9285 166° South  Level FlightAware Approximate
Tue 06:58:00 AM -5.9492 -78.8990 166° South  Level FlightAware Approximate
Tue 06:59:00 AM -6.0672 -78.8696 166° South  Level FlightAware Approximate
Tue 07:00:00 AM -6.1852 -78.8401 166° South  Level FlightAware Approximate
Tue 07:01:00 AM -6.3032 -78.8106 166° South  Level FlightAware Approximate
Tue 07:02:00 AM -6.4212 -78.7812 166° South  Level FlightAware Approximate
Tue 07:03:00 AM -6.5392 -78.7516 166° South  Level FlightAware Approximate
Tue 07:04:00 AM -6.6572 -78.7221 166° South  Level FlightAware Approximate
Tue 07:05:00 AM -6.7752 -78.6926 166° South  Level FlightAware Approximate
Tue 07:06:00 AM -6.8932 -78.6630 166° South  Level FlightAware Approximate
Tue 07:07:00 AM -7.0112 -78.6335 166° South  Level FlightAware Approximate
Tue 07:08:00 AM -7.1292 -78.6039 166° South  Level FlightAware Approximate
Tue 07:09:00 AM -7.2472 -78.5743 166° South  Level FlightAware Approximate
Tue 07:10:00 AM -7.3652 -78.5447 166° South  Level FlightAware Approximate
Tue 07:11:00 AM -7.4832 -78.5151 166° South  Level FlightAware Approximate
Tue 07:12:00 AM -7.6012 -78.4855 166° South  Level FlightAware Approximate
Tue 07:13:00 AM -7.7191 -78.4558 166° South  Level FlightAware Approximate
Tue 07:14:00 AM -7.8371 -78.4261 166° South  Level FlightAware Approximate
Tue 07:15:00 AM -7.9551 -78.3964 166° South  Level FlightAware Approximate
Tue 07:16:00 AM -8.0731 -78.3667 166° South  Level FlightAware Approximate
Tue 07:17:00 AM -8.1910 -78.3370 166° South  Level FlightAware Approximate
Tue 07:18:00 AM -8.3090 -78.3073 166° South  Level FlightAware Approximate
Tue 07:19:00 AM -8.4270 -78.2775 166° South  Level FlightAware Approximate
Tue 07:20:00 AM -8.5449 -78.2477 166° South  Level FlightAware Approximate
Tue 07:21:00 AM -8.6629 -78.2179 166° South  Level FlightAware Approximate
Tue 07:22:00 AM -8.7809 -78.1881 166° South  Level FlightAware Approximate
Tue 07:23:00 AM -8.8988 -78.1583 166° South  Level FlightAware Approximate
Tue 07:24:00 AM -9.0168 -78.1284 166° South  Level FlightAware Approximate
Tue 07:25:00 AM -9.1347 -78.0986 166° South  Level FlightAware Approximate
Tue 07:26:00 AM -9.2527 -78.0687 166° South  Level FlightAware Approximate
Tue 07:27:00 AM -9.3706 -78.0388 166° South  Level FlightAware Approximate
Tue 07:28:00 AM -9.4886 -78.0088 166° South  Level FlightAware Approximate
Tue 07:29:00 AM -9.6065 -77.9789 166° South  Level FlightAware Approximate
Tue 07:30:00 AM -9.7245 -77.9489 166° South  Level FlightAware Approximate
Tue 07:31:00 AM -9.8424 -77.9189 166° South  Level FlightAware Approximate
Tue 07:32:00 AM -9.9608 -77.8912 169° South  Level FlightAware Approximate
Tue 07:33:00 AM -10.0796 -77.8650 167° South  Level FlightAware Approximate
Tue 07:34:00 AM -10.1982 -77.8376 167° South  Level FlightAware Approximate
Tue 07:35:00 AM -10.3163 -77.8084 166° South  Level FlightAware Approximate
Tue 07:36:00 AM -10.4353 -77.7828 165° South  Level FlightAware Approximate
Tue 07:37:00 AM -10.5527 -77.7508 165° South  Level FlightAware Approximate
Tue 07:38:00 AM -10.6707 -77.7213 168° South  Level FlightAware Approximate
Tue 07:39:00 AM -10.7886 -77.6918 160° South  Level FlightAware Approximate
Tue 07:40:00 AM -10.9028 -77.6493 166° South  Level FlightAware Approximate
Tue 07:41:00 AM -11.0209 -77.6198 166° South  Level FlightAware Approximate
Tue 07:42:00 AM -11.1401 -77.5953 169° South  Level FlightAware Approximate
Tue 07:43:00 AM -11.2594 -77.5715 169° South  Level FlightAware Approximate
Tue 07:44:00 AM -11.3653 -77.5134 149° Southeast  Level FlightAware Approximate
Tue 07:45:00 AM -11.4689 -77.4486 148° Southeast  Level FlightAware Approximate
Tue 07:46:00 AM -11.5721 -77.3829 148° Southeast  Level FlightAware Approximate
Tue 07:47:00 AM -11.6749 -77.3167 147° Southeast  Level FlightAware Approximate
Tue 07:48:00 AM -11.7823 -77.2588 154° Southeast  Level FlightAware Approximate
Tue 07:49:00 AM -11.8769 -77.1923 144° Southeast  Level FlightAware Approximate
Tue 07:50:00 AM -11.9814 -77.1308 159° South  Level FlightAware Approximate
Tue 07:51:00 AM -12.0167 -77.1167 159° South  Level FlightAware Approximate
Tue 07:52:00 AM -12.0219 -77.1143 159° South  Level Estimated
Tue 07:53:00 AM -12.0167 -77.1167 159° South  Level FlightAware Approximate
Tue 07:54:00 AM -12.0219 -77.1143 159° South  Level Estimated
Tue 07:55:00 AM -12.0167 -77.1167 159° South  Level FlightAware Approximate
Tue 07:56:00 AM -12.0219 -77.1143 159° South  Level Estimated
Tue 07:57:00 AM -12.0167 -77.1167 159° South  Level FlightAware Approximate
Tue 07:58:00 AM -12.0219 -77.1143 159° South  Level Estimated
Tue 07:59:00 AM -12.0167 -77.1167 159° South  Level FlightAware Approximate
Tue 08:00:00 AM -12.0219 -77.1143 159° South  Level Estimated
Tue 08:01:00 AM -12.0167 -77.1167 159° South  Level FlightAware Approximate
Tue 08:02:00 AM -12.0219 -77.1143 159° South  Level Estimated
Tue 08:03:00 AM -12.0167 -77.1167 159° South  Level FlightAware Approximate
Tue 08:04:00 AM -12.0219 -77.1143 159° South  Level Estimated
Tue 08:05:00 AM -12.0167 -77.1167 159° South  Level FlightAware Approximate
Tue 08:06:00 AM -12.0219 -77.1143 159° South  Level Estimated
Tue 08:07:00 AM -12.0167 -77.1167 159° South  Level FlightAware Approximate
Tue 08:08:00 AM -12.0219 -77.1143 159° South  Level Estimated
Tue 08:09:00 AM -12.0167 -77.1167 159° South  Level FlightAware Approximate

Login

Don't have an account? Register now (free) for customized features, flight alerts, and more!